Search for airport 
image banner adimage banner adimage banner ad
image banner ad

6PS4 - Riddle Hospital

Located in Media, United States

ICAO - 6PS4, IATA -

Data provided by Airmate  

General information

Coordinates: N39°54'49" W75°25'54"
Elevation is 317 feet MSL.
Magnetic variation is -11° East
View others Airports in Pennsylvania

Operational data

Special qualification required
Current time UTC:
Current local time:
Weather at : KOQN - Brandywine ( 15 km )
METAR: KOQN 091415Z AUTO 00000KT 10SM BKN110 11/03 A3009 RMK AO2
View NOTAMs / SUP AIP / TFR affecting this airport [VIEW]
Communications frequencies: [VIEW]

Runways:

Airport contact information

Address: Media United States

Satellite view of 6PS4